sensor_id;sensor_type;location;lat;lon;timestamp;P1;durP1;ratioP1;P2;durP2;ratioP2
33740;SDS011;20065;48.380;10.892;2023-07-30T00:01:13;4.80;;;2.20;;
33740;SDS011;20065;48.380;10.892;2023-07-30T00:04:03;4.00;;;2.53;;
33740;SDS011;20065;48.380;10.892;2023-07-30T00:06:49;6.27;;;3.27;;
33740;SDS011;20065;48.380;10.892;2023-07-30T00:09:35;3.80;;;2.43;;
33740;SDS011;20065;48.380;10.892;2023-07-30T00:12:22;4.47;;;2.90;;
33740;SDS011;20065;48.380;10.892;2023-07-30T00:15:11;3.70;;;2.43;;
33740;SDS011;20065;48.380;10.892;2023-07-30T00:18:01;5.53;;;3.07;;
33740;SDS011;20065;48.380;10.892;2023-07-30T00:20:56;4.90;;;2.83;;
33740;SDS011;20065;48.380;10.892;2023-07-30T00:23:44;5.90;;;3.20;;
33740;SDS011;20065;48.380;10.892;2023-07-30T00:26:31;4.90;;;3.27;;
33740;SDS011;20065;48.380;10.892;2023-07-30T00:29:18;3.90;;;2.80;;
33740;SDS011;20065;48.380;10.892;2023-07-30T00:32:13;7.43;;;2.87;;
33740;SDS011;20065;48.380;10.892;2023-07-30T00:35:04;4.40;;;2.90;;
33740;SDS011;20065;48.380;10.892;2023-07-30T00:37:53;4.30;;;3.00;;
33740;SDS011;20065;48.380;10.892;2023-07-30T00:40:42;7.60;;;2.90;;
33740;SDS011;20065;48.380;10.892;2023-07-30T00:43:28;3.90;;;2.30;;
33740;SDS011;20065;48.380;10.892;2023-07-30T00:46:15;3.53;;;2.43;;
33740;SDS011;20065;48.380;10.892;2023-07-30T00:49:01;4.80;;;2.53;;
33740;SDS011;20065;48.380;10.892;2023-07-30T00:51:48;6.03;;;3.20;;
33740;SDS011;20065;48.380;10.892;2023-07-30T00:54:34;6.17;;;3.10;;
33740;SDS011;20065;48.380;10.892;2023-07-30T00:57:20;6.13;;;2.77;;
33740;SDS011;20065;48.380;10.892;2023-07-30T01:00:08;3.80;;;2.53;;
33740;SDS011;20065;48.380;10.892;2023-07-30T01:02:56;4.87;;;2.40;;
33740;SDS011;20065;48.380;10.892;2023-07-30T01:08:41;6.40;;;2.17;;
33740;SDS011;20065;48.380;10.892;2023-07-30T01:11:27;5.03;;;2.50;;
33740;SDS011;20065;48.380;10.892;2023-07-30T01:14:15;4.17;;;3.00;;
33740;SDS011;20065;48.380;10.892;2023-07-30T01:17:06;4.17;;;2.67;;
33740;SDS011;20065;48.380;10.892;2023-07-30T01:19:53;5.17;;;2.90;;
33740;SDS011;20065;48.380;10.892;2023-07-30T01:22:42;3.10;;;2.17;;
33740;SDS011;20065;48.380;10.892;2023-07-30T01:25:29;5.70;;;2.63;;
33740;SDS011;20065;48.380;10.892;2023-07-30T01:28:19;3.70;;;2.10;;
33740;SDS011;20065;48.380;10.892;2023-07-30T01:31:05;3.87;;;2.50;;
33740;SDS011;20065;48.380;10.892;2023-07-30T01:33:54;4.37;;;2.53;;
33740;SDS011;20065;48.380;10.892;2023-07-30T01:36:41;4.77;;;2.30;;
33740;SDS011;20065;48.380;10.892;2023-07-30T01:39:28;3.50;;;2.33;;
33740;SDS011;20065;48.380;10.892;2023-07-30T01:42:16;3.70;;;2.60;;
33740;SDS011;20065;48.380;10.892;2023-07-30T01:45:03;4.27;;;2.67;;
33740;SDS011;20065;48.380;10.892;2023-07-30T01:47:50;4.00;;;2.70;;
33740;SDS011;20065;48.380;10.892;2023-07-30T01:50:37;5.10;;;3.03;;
33740;SDS011;20065;48.380;10.892;2023-07-30T01:53:23;6.90;;;2.60;;
33740;SDS011;20065;48.380;10.892;2023-07-30T01:56:12;4.83;;;3.10;;
33740;SDS011;20065;48.380;10.892;2023-07-30T01:58:58;4.10;;;2.50;;
33740;SDS011;20065;48.380;10.892;2023-07-30T02:01:44;5.00;;;3.20;;
33740;SDS011;20065;48.380;10.892;2023-07-30T02:04:30;4.03;;;2.37;;
33740;SDS011;20065;48.380;10.892;2023-07-30T02:07:16;5.97;;;3.20;;
33740;SDS011;20065;48.380;10.892;2023-07-30T02:10:02;4.00;;;2.80;;
33740;SDS011;20065;48.380;10.892;2023-07-30T02:12:49;4.77;;;2.70;;
33740;SDS011;20065;48.380;10.892;2023-07-30T02:15:39;4.27;;;2.97;;
33740;SDS011;20065;48.380;10.892;2023-07-30T02:18:27;3.80;;;2.53;;
33740;SDS011;20065;48.380;10.892;2023-07-30T02:21:13;3.57;;;2.37;;
33740;SDS011;20065;48.380;10.892;2023-07-30T02:23:59;4.07;;;2.50;;
33740;SDS011;20065;48.380;10.892;2023-07-30T02:26:45;4.10;;;2.43;;
33740;SDS011;20065;48.380;10.892;2023-07-30T02:29:32;6.33;;;2.90;;
33740;SDS011;20065;48.380;10.892;2023-07-30T02:32:18;9.93;;;2.97;;
33740;SDS011;20065;48.380;10.892;2023-07-30T02:35:04;4.70;;;3.03;;
33740;SDS011;20065;48.380;10.892;2023-07-30T02:37:51;5.73;;;3.17;;
33740;SDS011;20065;48.380;10.892;2023-07-30T02:40:37;7.10;;;2.83;;
33740;SDS011;20065;48.380;10.892;2023-07-30T02:43:23;5.90;;;2.70;;
33740;SDS011;20065;48.380;10.892;2023-07-30T02:46:09;3.80;;;2.43;;
33740;SDS011;20065;48.380;10.892;2023-07-30T02:48:56;4.37;;;2.30;;
33740;SDS011;20065;48.380;10.892;2023-07-30T02:51:44;5.10;;;3.23;;
33740;SDS011;20065;48.380;10.892;2023-07-30T02:54:34;5.77;;;3.03;;
33740;SDS011;20065;48.380;10.892;2023-07-30T02:57:21;4.93;;;3.10;;
33740;SDS011;20065;48.380;10.892;2023-07-30T03:00:07;5.33;;;3.23;;
33740;SDS011;20065;48.380;10.892;2023-07-30T03:02:55;4.97;;;3.20;;
33740;SDS011;20065;48.380;10.892;2023-07-30T03:05:42;5.50;;;3.20;;
33740;SDS011;20065;48.380;10.892;2023-07-30T03:08:28;6.27;;;4.37;;
33740;SDS011;20065;48.380;10.892;2023-07-30T03:11:14;5.50;;;3.30;;
33740;SDS011;20065;48.380;10.892;2023-07-30T03:14:01;4.90;;;3.30;;
33740;SDS011;20065;48.380;10.892;2023-07-30T03:16:47;4.90;;;3.37;;
33740;SDS011;20065;48.380;10.892;2023-07-30T03:19:34;4.70;;;3.37;;
33740;SDS011;20065;48.380;10.892;2023-07-30T03:22:20;8.13;;;3.00;;
33740;SDS011;20065;48.380;10.892;2023-07-30T03:25:07;5.67;;;3.20;;
33740;SDS011;20065;48.380;10.892;2023-07-30T03:27:53;5.93;;;3.67;;
33740;SDS011;20065;48.380;10.892;2023-07-30T03:30:39;6.10;;;3.90;;
33740;SDS011;20065;48.380;10.892;2023-07-30T03:33:25;5.17;;;3.63;;
33740;SDS011;20065;48.380;10.892;2023-07-30T03:36:12;5.30;;;3.60;;
33740;SDS011;20065;48.380;10.892;2023-07-30T03:38:59;6.20;;;3.90;;
33740;SDS011;20065;48.380;10.892;2023-07-30T03:41:45;5.80;;;3.83;;
33740;SDS011;20065;48.380;10.892;2023-07-30T03:44:31;4.90;;;3.10;;
33740;SDS011;20065;48.380;10.892;2023-07-30T03:47:18;4.50;;;3.00;;
33740;SDS011;20065;48.380;10.892;2023-07-30T03:50:04;5.10;;;3.60;;
33740;SDS011;20065;48.380;10.892;2023-07-30T03:52:51;4.73;;;3.00;;
33740;SDS011;20065;48.380;10.892;2023-07-30T03:55:37;5.80;;;4.10;;
33740;SDS011;20065;48.380;10.892;2023-07-30T03:58:23;5.20;;;3.60;;
33740;SDS011;20065;48.380;10.892;2023-07-30T04:01:09;5.03;;;3.23;;
33740;SDS011;20065;48.380;10.892;2023-07-30T04:03:56;4.03;;;3.00;;
33740;SDS011;20065;48.380;10.892;2023-07-30T04:06:42;5.13;;;3.47;;
33740;SDS011;20065;48.380;10.892;2023-07-30T04:09:28;5.77;;;3.63;;
33740;SDS011;20065;48.380;10.892;2023-07-30T04:12:14;5.43;;;3.50;;
33740;SDS011;20065;48.380;10.892;2023-07-30T04:15:01;5.70;;;3.30;;
33740;SDS011;20065;48.380;10.892;2023-07-30T04:17:47;5.73;;;3.20;;
33740;SDS011;20065;48.380;10.892;2023-07-30T04:20:35;7.60;;;3.33;;
33740;SDS011;20065;48.380;10.892;2023-07-30T04:23:21;7.23;;;4.00;;
33740;SDS011;20065;48.380;10.892;2023-07-30T04:26:08;6.40;;;3.53;;
33740;SDS011;20065;48.380;10.892;2023-07-30T04:28:54;6.93;;;3.70;;
33740;SDS011;20065;48.380;10.892;2023-07-30T04:31:41;4.47;;;3.00;;
33740;SDS011;20065;48.380;10.892;2023-07-30T04:34:27;7.93;;;3.43;;
33740;SDS011;20065;48.380;10.892;2023-07-30T04:37:14;8.00;;;3.87;;
33740;SDS011;20065;48.380;10.892;2023-07-30T04:40:01;5.37;;;3.37;;
33740;SDS011;20065;48.380;10.892;2023-07-30T04:42:50;6.60;;;3.67;;
33740;SDS011;20065;48.380;10.892;2023-07-30T04:45:36;8.57;;;3.53;;
33740;SDS011;20065;48.380;10.892;2023-07-30T04:48:22;5.80;;;3.57;;
33740;SDS011;20065;48.380;10.892;2023-07-30T04:51:09;4.30;;;3.13;;
33740;SDS011;20065;48.380;10.892;2023-07-30T04:53:55;4.93;;;3.33;;
33740;SDS011;20065;48.380;10.892;2023-07-30T04:56:41;4.47;;;2.97;;
33740;SDS011;20065;48.380;10.892;2023-07-30T04:59:27;4.70;;;3.03;;
33740;SDS011;20065;48.380;10.892;2023-07-30T05:02:13;5.47;;;3.40;;
33740;SDS011;20065;48.380;10.892;2023-07-30T05:05:00;5.13;;;2.97;;
33740;SDS011;20065;48.380;10.892;2023-07-30T05:07:46;5.40;;;3.60;;
33740;SDS011;20065;48.380;10.892;2023-07-30T05:10:32;6.20;;;2.60;;
33740;SDS011;20065;48.380;10.892;2023-07-30T05:13:19;10.33;;;3.27;;
33740;SDS011;20065;48.380;10.892;2023-07-30T05:16:05;6.90;;;3.37;;
33740;SDS011;20065;48.380;10.892;2023-07-30T05:18:51;4.60;;;3.10;;
33740;SDS011;20065;48.380;10.892;2023-07-30T05:21:37;8.00;;;3.60;;
33740;SDS011;20065;48.380;10.892;2023-07-30T05:24:24;5.10;;;3.03;;
33740;SDS011;20065;48.380;10.892;2023-07-30T05:27:10;4.30;;;2.97;;
33740;SDS011;20065;48.380;10.892;2023-07-30T05:29:56;5.13;;;3.37;;
33740;SDS011;20065;48.380;10.892;2023-07-30T05:32:43;7.80;;;3.13;;
33740;SDS011;20065;48.380;10.892;2023-07-30T05:35:29;7.77;;;3.53;;
33740;SDS011;20065;48.380;10.892;2023-07-30T05:38:15;5.20;;;3.50;;
33740;SDS011;20065;48.380;10.892;2023-07-30T05:41:01;4.77;;;3.27;;
33740;SDS011;20065;48.380;10.892;2023-07-30T05:43:47;4.50;;;2.70;;
33740;SDS011;20065;48.380;10.892;2023-07-30T05:46:34;5.07;;;3.00;;
33740;SDS011;20065;48.380;10.892;2023-07-30T05:49:20;4.97;;;2.60;;
33740;SDS011;20065;48.380;10.892;2023-07-30T05:52:06;4.00;;;2.70;;
33740;SDS011;20065;48.380;10.892;2023-07-30T05:54:52;5.47;;;3.13;;
33740;SDS011;20065;48.380;10.892;2023-07-30T05:57:39;4.87;;;2.80;;
33740;SDS011;20065;48.380;10.892;2023-07-30T06:00:25;5.10;;;2.77;;
33740;SDS011;20065;48.380;10.892;2023-07-30T06:03:14;5.30;;;3.07;;
33740;SDS011;20065;48.380;10.892;2023-07-30T06:06:01;5.73;;;2.90;;
33740;SDS011;20065;48.380;10.892;2023-07-30T06:08:47;4.50;;;2.70;;
33740;SDS011;20065;48.380;10.892;2023-07-30T06:11:34;6.10;;;3.27;;
33740;SDS011;20065;48.380;10.892;2023-07-30T06:14:24;5.10;;;2.63;;
33740;SDS011;20065;48.380;10.892;2023-07-30T06:20:10;3.83;;;2.53;;
33740;SDS011;20065;48.380;10.892;2023-07-30T06:22:57;4.70;;;3.03;;
33740;SDS011;20065;48.380;10.892;2023-07-30T06:25:43;5.80;;;2.90;;
33740;SDS011;20065;48.380;10.892;2023-07-30T06:28:30;4.77;;;3.10;;
33740;SDS011;20065;48.380;10.892;2023-07-30T06:31:16;5.83;;;3.00;;
33740;SDS011;20065;48.380;10.892;2023-07-30T06:34:02;4.33;;;2.70;;
33740;SDS011;20065;48.380;10.892;2023-07-30T06:36:48;4.50;;;2.80;;
33740;SDS011;20065;48.380;10.892;2023-07-30T06:39:34;5.10;;;2.67;;
33740;SDS011;20065;48.380;10.892;2023-07-30T06:42:20;6.33;;;3.13;;
33740;SDS011;20065;48.380;10.892;2023-07-30T06:45:07;3.97;;;2.53;;
33740;SDS011;20065;48.380;10.892;2023-07-30T06:47:57;4.20;;;2.80;;
33740;SDS011;20065;48.380;10.892;2023-07-30T06:50:43;6.17;;;2.60;;
33740;SDS011;20065;48.380;10.892;2023-07-30T06:53:29;4.53;;;3.10;;
33740;SDS011;20065;48.380;10.892;2023-07-30T06:56:15;4.70;;;2.80;;
33740;SDS011;20065;48.380;10.892;2023-07-30T06:59:02;4.47;;;2.83;;
33740;SDS011;20065;48.380;10.892;2023-07-30T07:01:49;7.47;;;2.93;;
33740;SDS011;20065;48.380;10.892;2023-07-30T07:04:35;4.50;;;2.53;;
33740;SDS011;20065;48.380;10.892;2023-07-30T07:07:21;5.33;;;3.00;;
33740;SDS011;20065;48.380;10.892;2023-07-30T07:10:07;3.93;;;2.53;;
33740;SDS011;20065;48.380;10.892;2023-07-30T07:12:55;6.80;;;3.13;;
33740;SDS011;20065;48.380;10.892;2023-07-30T07:15:42;3.70;;;2.40;;
33740;SDS011;20065;48.380;10.892;2023-07-30T07:18:29;7.50;;;3.23;;
33740;SDS011;20065;48.380;10.892;2023-07-30T07:21:15;4.67;;;2.70;;
33740;SDS011;20065;48.380;10.892;2023-07-30T07:24:01;6.60;;;2.97;;
33740;SDS011;20065;48.380;10.892;2023-07-30T07:26:47;3.97;;;2.30;;
33740;SDS011;20065;48.380;10.892;2023-07-30T07:29:34;3.70;;;2.30;;
33740;SDS011;20065;48.380;10.892;2023-07-30T07:32:22;4.33;;;2.50;;
33740;SDS011;20065;48.380;10.892;2023-07-30T07:35:08;4.10;;;2.47;;
33740;SDS011;20065;48.380;10.892;2023-07-30T07:37:55;4.10;;;2.87;;
33740;SDS011;20065;48.380;10.892;2023-07-30T07:40:41;4.43;;;2.90;;
33740;SDS011;20065;48.380;10.892;2023-07-30T07:43:27;4.80;;;2.60;;
33740;SDS011;20065;48.380;10.892;2023-07-30T07:46:14;5.60;;;2.80;;
33740;SDS011;20065;48.380;10.892;2023-07-30T07:49:00;4.17;;;2.27;;
33740;SDS011;20065;48.380;10.892;2023-07-30T07:51:46;3.80;;;2.37;;
33740;SDS011;20065;48.380;10.892;2023-07-30T07:54:32;4.07;;;2.37;;
33740;SDS011;20065;48.380;10.892;2023-07-30T07:57:19;3.30;;;2.10;;
33740;SDS011;20065;48.380;10.892;2023-07-30T08:00:06;3.60;;;2.27;;
33740;SDS011;20065;48.380;10.892;2023-07-30T08:02:57;4.00;;;2.80;;
33740;SDS011;20065;48.380;10.892;2023-07-30T08:05:46;4.10;;;2.60;;
33740;SDS011;20065;48.380;10.892;2023-07-30T08:08:32;4.57;;;2.33;;
33740;SDS011;20065;48.380;10.892;2023-07-30T08:11:18;5.63;;;2.63;;
33740;SDS011;20065;48.380;10.892;2023-07-30T08:14:04;4.47;;;2.83;;
33740;SDS011;20065;48.380;10.892;2023-07-30T08:16:51;4.83;;;2.47;;
33740;SDS011;20065;48.380;10.892;2023-07-30T08:19:37;4.37;;;2.23;;
33740;SDS011;20065;48.380;10.892;2023-07-30T08:22:23;7.50;;;1.83;;
33740;SDS011;20065;48.380;10.892;2023-07-30T08:25:09;3.30;;;1.97;;
33740;SDS011;20065;48.380;10.892;2023-07-30T08:27:56;3.40;;;2.20;;
33740;SDS011;20065;48.380;10.892;2023-07-30T08:30:42;3.80;;;1.90;;
33740;SDS011;20065;48.380;10.892;2023-07-30T08:33:28;3.07;;;1.73;;
33740;SDS011;20065;48.380;10.892;2023-07-30T08:36:14;4.83;;;2.77;;
33740;SDS011;20065;48.380;10.892;2023-07-30T08:39:01;3.90;;;2.27;;
33740;SDS011;20065;48.380;10.892;2023-07-30T08:41:49;4.27;;;2.60;;
33740;SDS011;20065;48.380;10.892;2023-07-30T08:44:35;3.60;;;2.40;;
33740;SDS011;20065;48.380;10.892;2023-07-30T08:47:22;3.77;;;2.17;;
33740;SDS011;20065;48.380;10.892;2023-07-30T08:50:08;4.20;;;2.50;;
33740;SDS011;20065;48.380;10.892;2023-07-30T08:52:55;4.27;;;2.17;;
33740;SDS011;20065;48.380;10.892;2023-07-30T08:55:41;3.00;;;1.77;;
33740;SDS011;20065;48.380;10.892;2023-07-30T08:58:28;4.53;;;2.37;;
33740;SDS011;20065;48.380;10.892;2023-07-30T09:01:14;3.30;;;1.90;;
33740;SDS011;20065;48.380;10.892;2023-07-30T09:04:03;3.70;;;2.17;;
33740;SDS011;20065;48.380;10.892;2023-07-30T09:06:51;4.00;;;2.20;;
33740;SDS011;20065;48.380;10.892;2023-07-30T09:09:37;3.30;;;1.90;;
33740;SDS011;20065;48.380;10.892;2023-07-30T09:12:28;3.10;;;1.63;;
33740;SDS011;20065;48.380;10.892;2023-07-30T09:15:18;3.40;;;1.97;;
33740;SDS011;20065;48.380;10.892;2023-07-30T09:18:16;4.67;;;2.20;;
33740;SDS011;20065;48.380;10.892;2023-07-30T09:21:04;4.07;;;2.20;;
33740;SDS011;20065;48.380;10.892;2023-07-30T09:23:50;5.07;;;2.57;;
33740;SDS011;20065;48.380;10.892;2023-07-30T09:26:41;3.53;;;2.10;;
33740;SDS011;20065;48.380;10.892;2023-07-30T09:29:31;3.40;;;2.10;;
33740;SDS011;20065;48.380;10.892;2023-07-30T09:32:18;5.30;;;3.40;;
33740;SDS011;20065;48.380;10.892;2023-07-30T09:37:59;3.23;;;1.87;;
33740;SDS011;20065;48.380;10.892;2023-07-30T09:40:49;4.30;;;2.20;;
33740;SDS011;20065;48.380;10.892;2023-07-30T09:43:36;3.50;;;1.93;;
33740;SDS011;20065;48.380;10.892;2023-07-30T09:46:22;3.70;;;1.70;;
33740;SDS011;20065;48.380;10.892;2023-07-30T09:49:08;5.53;;;1.80;;
33740;SDS011;20065;48.380;10.892;2023-07-30T09:51:54;10.60;;;2.13;;
33740;SDS011;20065;48.380;10.892;2023-07-30T09:54:42;4.07;;;1.70;;
33740;SDS011;20065;48.380;10.892;2023-07-30T09:57:28;4.70;;;1.80;;
33740;SDS011;20065;48.380;10.892;2023-07-30T10:00:14;3.83;;;2.13;;
33740;SDS011;20065;48.380;10.892;2023-07-30T10:03:01;4.13;;;1.70;;
33740;SDS011;20065;48.380;10.892;2023-07-30T10:05:48;2.80;;;1.53;;
33740;SDS011;20065;48.380;10.892;2023-07-30T10:08:36;2.70;;;1.60;;
33740;SDS011;20065;48.380;10.892;2023-07-30T10:11:25;3.60;;;2.37;;
33740;SDS011;20065;48.380;10.892;2023-07-30T10:14:12;14.17;;;2.53;;
33740;SDS011;20065;48.380;10.892;2023-07-30T10:17:00;3.77;;;1.93;;
33740;SDS011;20065;48.380;10.892;2023-07-30T10:19:50;3.87;;;2.20;;
33740;SDS011;20065;48.380;10.892;2023-07-30T10:22:38;3.43;;;1.90;;
33740;SDS011;20065;48.380;10.892;2023-07-30T10:25:29;10.17;;;2.60;;
33740;SDS011;20065;48.380;10.892;2023-07-30T10:31:17;7.83;;;2.20;;
33740;SDS011;20065;48.380;10.892;2023-07-30T10:34:06;4.80;;;1.70;;
33740;SDS011;20065;48.380;10.892;2023-07-30T10:36:57;3.60;;;1.33;;
33740;SDS011;20065;48.380;10.892;2023-07-30T10:39:47;5.17;;;2.30;;
33740;SDS011;20065;48.380;10.892;2023-07-30T10:42:34;7.43;;;2.40;;
33740;SDS011;20065;48.380;10.892;2023-07-30T10:45:25;4.90;;;2.70;;
33740;SDS011;20065;48.380;10.892;2023-07-30T10:48:11;5.90;;;2.90;;
33740;SDS011;20065;48.380;10.892;2023-07-30T10:50:58;3.07;;;1.70;;
33740;SDS011;20065;48.380;10.892;2023-07-30T10:53:49;3.03;;;1.60;;
33740;SDS011;20065;48.380;10.892;2023-07-30T10:56:37;3.47;;;1.80;;
33740;SDS011;20065;48.380;10.892;2023-07-30T10:59:23;3.90;;;2.23;;
33740;SDS011;20065;48.380;10.892;2023-07-30T11:02:09;4.80;;;2.07;;
33740;SDS011;20065;48.380;10.892;2023-07-30T11:04:57;5.10;;;2.17;;
33740;SDS011;20065;48.380;10.892;2023-07-30T11:07:56;3.50;;;2.00;;
33740;SDS011;20065;48.380;10.892;2023-07-30T11:10:43;4.40;;;2.20;;
33740;SDS011;20065;48.380;10.892;2023-07-30T11:13:38;3.63;;;2.30;;
33740;SDS011;20065;48.380;10.892;2023-07-30T11:16:26;3.00;;;1.90;;
33740;SDS011;20065;48.380;10.892;2023-07-30T11:19:12;3.50;;;2.03;;
33740;SDS011;20065;48.380;10.892;2023-07-30T11:22:00;5.60;;;3.00;;
33740;SDS011;20065;48.380;10.892;2023-07-30T11:24:46;3.33;;;2.00;;
33740;SDS011;20065;48.380;10.892;2023-07-30T11:27:44;4.10;;;1.93;;
33740;SDS011;20065;48.380;10.892;2023-07-30T11:30:33;9.60;;;2.87;;
33740;SDS011;20065;48.380;10.892;2023-07-30T11:33:19;4.93;;;2.17;;
33740;SDS011;20065;48.380;10.892;2023-07-30T11:36:06;3.77;;;2.20;;
33740;SDS011;20065;48.380;10.892;2023-07-30T11:39:07;3.70;;;2.10;;
33740;SDS011;20065;48.380;10.892;2023-07-30T11:41:53;4.00;;;1.83;;
33740;SDS011;20065;48.380;10.892;2023-07-30T11:44:40;3.53;;;1.80;;
33740;SDS011;20065;48.380;10.892;2023-07-30T11:47:27;3.60;;;2.40;;
33740;SDS011;20065;48.380;10.892;2023-07-30T11:50:14;4.40;;;1.70;;
33740;SDS011;20065;48.380;10.892;2023-07-30T11:53:03;3.73;;;2.07;;
33740;SDS011;20065;48.380;10.892;2023-07-30T11:55:50;5.70;;;2.20;;
33740;SDS011;20065;48.380;10.892;2023-07-30T11:58:36;3.33;;;2.20;;
33740;SDS011;20065;48.380;10.892;2023-07-30T12:01:23;3.40;;;2.17;;
33740;SDS011;20065;48.380;10.892;2023-07-30T12:04:13;5.93;;;2.30;;
33740;SDS011;20065;48.380;10.892;2023-07-30T12:07:00;3.93;;;2.00;;
33740;SDS011;20065;48.380;10.892;2023-07-30T12:13:58;4.00;;;2.53;;
33740;SDS011;20065;48.380;10.892;2023-07-30T12:16:46;4.07;;;2.80;;
33740;SDS011;20065;48.380;10.892;2023-07-30T12:19:32;3.53;;;2.20;;
33740;SDS011;20065;48.380;10.892;2023-07-30T12:22:22;2.83;;;1.80;;
33740;SDS011;20065;48.380;10.892;2023-07-30T12:25:09;4.30;;;2.47;;
33740;SDS011;20065;48.380;10.892;2023-07-30T12:27:56;3.07;;;1.93;;
33740;SDS011;20065;48.380;10.892;2023-07-30T12:30:42;3.97;;;1.90;;
33740;SDS011;20065;48.380;10.892;2023-07-30T12:33:28;5.93;;;2.27;;
33740;SDS011;20065;48.380;10.892;2023-07-30T12:36:14;3.90;;;2.33;;
33740;SDS011;20065;48.380;10.892;2023-07-30T12:39:01;5.17;;;2.20;;
33740;SDS011;20065;48.380;10.892;2023-07-30T12:41:51;10.83;;;2.83;;
33740;SDS011;20065;48.380;10.892;2023-07-30T12:44:38;3.60;;;2.20;;
33740;SDS011;20065;48.380;10.892;2023-07-30T12:47:24;4.93;;;2.23;;
33740;SDS011;20065;48.380;10.892;2023-07-30T12:50:11;3.30;;;2.30;;
33740;SDS011;20065;48.380;10.892;2023-07-30T12:52:57;3.60;;;1.87;;
33740;SDS011;20065;48.380;10.892;2023-07-30T12:55:43;3.70;;;1.90;;
33740;SDS011;20065;48.380;10.892;2023-07-30T12:58:30;3.67;;;2.30;;
33740;SDS011;20065;48.380;10.892;2023-07-30T13:01:16;5.40;;;2.60;;
33740;SDS011;20065;48.380;10.892;2023-07-30T13:04:02;3.60;;;2.00;;
33740;SDS011;20065;48.380;10.892;2023-07-30T13:06:49;3.47;;;2.40;;
33740;SDS011;20065;48.380;10.892;2023-07-30T13:09:35;3.53;;;2.40;;
33740;SDS011;20065;48.380;10.892;2023-07-30T13:12:21;5.50;;;2.10;;
33740;SDS011;20065;48.380;10.892;2023-07-30T13:15:07;3.00;;;1.80;;
33740;SDS011;20065;48.380;10.892;2023-07-30T13:17:54;3.33;;;1.87;;
33740;SDS011;20065;48.380;10.892;2023-07-30T13:20:40;3.70;;;1.87;;
33740;SDS011;20065;48.380;10.892;2023-07-30T13:23:27;5.03;;;2.20;;
33740;SDS011;20065;48.380;10.892;2023-07-30T13:26:17;3.50;;;2.20;;
33740;SDS011;20065;48.380;10.892;2023-07-30T13:29:04;4.47;;;2.40;;
33740;SDS011;20065;48.380;10.892;2023-07-30T13:31:51;5.60;;;2.20;;
33740;SDS011;20065;48.380;10.892;2023-07-30T13:34:39;3.40;;;2.00;;
33740;SDS011;20065;48.380;10.892;2023-07-30T13:37:26;3.90;;;1.90;;
33740;SDS011;20065;48.380;10.892;2023-07-30T13:40:13;3.73;;;1.73;;
33740;SDS011;20065;48.380;10.892;2023-07-30T13:43:00;3.03;;;1.97;;
33740;SDS011;20065;48.380;10.892;2023-07-30T13:45:50;3.80;;;1.87;;
33740;SDS011;20065;48.380;10.892;2023-07-30T13:48:38;2.93;;;1.57;;
33740;SDS011;20065;48.380;10.892;2023-07-30T13:51:24;4.00;;;2.20;;
33740;SDS011;20065;48.380;10.892;2023-07-30T13:54:13;4.67;;;2.40;;
33740;SDS011;20065;48.380;10.892;2023-07-30T13:57:01;5.83;;;1.80;;
33740;SDS011;20065;48.380;10.892;2023-07-30T13:59:50;4.00;;;2.10;;
33740;SDS011;20065;48.380;10.892;2023-07-30T14:02:39;3.27;;;1.83;;
33740;SDS011;20065;48.380;10.892;2023-07-30T14:05:26;3.97;;;2.10;;
33740;SDS011;20065;48.380;10.892;2023-07-30T14:08:15;4.53;;;2.30;;
33740;SDS011;20065;48.380;10.892;2023-07-30T14:11:01;4.37;;;2.40;;
33740;SDS011;20065;48.380;10.892;2023-07-30T14:13:48;3.50;;;2.10;;
33740;SDS011;20065;48.380;10.892;2023-07-30T14:16:36;3.93;;;2.00;;
33740;SDS011;20065;48.380;10.892;2023-07-30T14:19:26;3.90;;;1.70;;
33740;SDS011;20065;48.380;10.892;2023-07-30T14:22:12;4.50;;;2.13;;
33740;SDS011;20065;48.380;10.892;2023-07-30T14:24:59;3.87;;;2.30;;
33740;SDS011;20065;48.380;10.892;2023-07-30T14:27:45;3.70;;;1.70;;
33740;SDS011;20065;48.380;10.892;2023-07-30T14:30:31;3.60;;;1.63;;
33740;SDS011;20065;48.380;10.892;2023-07-30T14:33:21;4.43;;;1.87;;
33740;SDS011;20065;48.380;10.892;2023-07-30T14:39:16;3.80;;;2.20;;
33740;SDS011;20065;48.380;10.892;2023-07-30T14:42:03;5.20;;;1.93;;
33740;SDS011;20065;48.380;10.892;2023-07-30T14:44:51;3.53;;;1.87;;
33740;SDS011;20065;48.380;10.892;2023-07-30T14:47:37;5.83;;;2.17;;
33740;SDS011;20065;48.380;10.892;2023-07-30T14:50:24;4.90;;;2.67;;
33740;SDS011;20065;48.380;10.892;2023-07-30T14:53:11;4.00;;;2.20;;
33740;SDS011;20065;48.380;10.892;2023-07-30T14:55:58;3.70;;;2.37;;
33740;SDS011;20065;48.380;10.892;2023-07-30T14:58:45;4.87;;;2.60;;
33740;SDS011;20065;48.380;10.892;2023-07-30T15:01:42;3.50;;;1.90;;
33740;SDS011;20065;48.380;10.892;2023-07-30T15:04:29;3.77;;;1.83;;
33740;SDS011;20065;48.380;10.892;2023-07-30T15:07:19;3.20;;;2.00;;
33740;SDS011;20065;48.380;10.892;2023-07-30T15:10:06;3.77;;;1.73;;
33740;SDS011;20065;48.380;10.892;2023-07-30T15:12:52;3.60;;;2.07;;
33740;SDS011;20065;48.380;10.892;2023-07-30T15:15:38;3.37;;;1.87;;
33740;SDS011;20065;48.380;10.892;2023-07-30T15:18:25;3.70;;;2.40;;
33740;SDS011;20065;48.380;10.892;2023-07-30T15:21:11;3.80;;;2.30;;
33740;SDS011;20065;48.380;10.892;2023-07-30T15:24:03;5.20;;;3.20;;
33740;SDS011;20065;48.380;10.892;2023-07-30T15:26:52;5.17;;;2.30;;
33740;SDS011;20065;48.380;10.892;2023-07-30T15:29:38;5.33;;;2.60;;
33740;SDS011;20065;48.380;10.892;2023-07-30T15:32:24;8.60;;;2.80;;
33740;SDS011;20065;48.380;10.892;2023-07-30T15:35:20;4.83;;;2.03;;
33740;SDS011;20065;48.380;10.892;2023-07-30T15:38:08;3.50;;;1.90;;
33740;SDS011;20065;48.380;10.892;2023-07-30T15:40:59;2.90;;;1.70;;
33740;SDS011;20065;48.380;10.892;2023-07-30T15:43:48;4.10;;;1.87;;
33740;SDS011;20065;48.380;10.892;2023-07-30T15:46:34;4.37;;;2.43;;
33740;SDS011;20065;48.380;10.892;2023-07-30T15:49:20;4.03;;;2.30;;
33740;SDS011;20065;48.380;10.892;2023-07-30T15:52:07;3.60;;;2.00;;
33740;SDS011;20065;48.380;10.892;2023-07-30T15:55:12;3.80;;;2.33;;
33740;SDS011;20065;48.380;10.892;2023-07-30T15:58:00;4.00;;;2.63;;
33740;SDS011;20065;48.380;10.892;2023-07-30T16:01:15;5.10;;;2.10;;
33740;SDS011;20065;48.380;10.892;2023-07-30T16:07:36;4.60;;;2.90;;
33740;SDS011;20065;48.380;10.892;2023-07-30T16:10:23;4.07;;;2.20;;
33740;SDS011;20065;48.380;10.892;2023-07-30T16:13:09;4.27;;;2.23;;
33740;SDS011;20065;48.380;10.892;2023-07-30T16:15:56;4.90;;;2.37;;
33740;SDS011;20065;48.380;10.892;2023-07-30T16:18:42;4.00;;;2.87;;
33740;SDS011;20065;48.380;10.892;2023-07-30T16:21:30;4.30;;;2.43;;
33740;SDS011;20065;48.380;10.892;2023-07-30T16:24:18;7.10;;;2.57;;
33740;SDS011;20065;48.380;10.892;2023-07-30T16:27:05;6.00;;;2.57;;
33740;SDS011;20065;48.380;10.892;2023-07-30T16:29:51;6.83;;;2.50;;
33740;SDS011;20065;48.380;10.892;2023-07-30T16:32:38;4.17;;;2.30;;
33740;SDS011;20065;48.380;10.892;2023-07-30T16:35:24;4.00;;;2.60;;
33740;SDS011;20065;48.380;10.892;2023-07-30T16:38:11;6.07;;;2.97;;
33740;SDS011;20065;48.380;10.892;2023-07-30T16:40:58;4.60;;;2.67;;
33740;SDS011;20065;48.380;10.892;2023-07-30T16:43:46;3.77;;;2.57;;
33740;SDS011;20065;48.380;10.892;2023-07-30T16:46:32;4.57;;;2.40;;
33740;SDS011;20065;48.380;10.892;2023-07-30T16:49:18;4.40;;;2.37;;
33740;SDS011;20065;48.380;10.892;2023-07-30T16:52:05;5.50;;;2.20;;
33740;SDS011;20065;48.380;10.892;2023-07-30T16:54:51;4.70;;;2.40;;